sensor_id;sensor_type;location;lat;lon;timestamp;pressure;altitude;pressure_sealevel;temperature;humidity
78064;BME280;67429;51.596;-3.264;2023-02-05T00:01:41;101922.06;;;10.26;53.55
78064;BME280;67429;51.596;-3.264;2023-02-05T00:04:06;101947.03;;;10.84;52.33
78064;BME280;67429;51.596;-3.264;2023-02-05T00:06:32;101956.15;;;10.83;51.39
78064;BME280;67429;51.596;-3.264;2023-02-05T00:08:57;101938.73;;;10.77;51.82
78064;BME280;67429;51.596;-3.264;2023-02-05T00:11:23;101936.76;;;10.27;52.81
78064;BME280;67429;51.596;-3.264;2023-02-05T00:13:48;101946.08;;;9.79;52.20
78064;BME280;67429;51.596;-3.264;2023-02-05T00:16:15;101939.14;;;9.75;53.21
78064;BME280;67429;51.596;-3.264;2023-02-05T00:18:39;101945.57;;;8.97;55.55
78064;BME280;67429;51.596;-3.264;2023-02-05T00:21:05;101955.80;;;8.49;54.99
78064;BME280;67429;51.596;-3.264;2023-02-05T00:23:30;101963.85;;;8.13;55.47
78064;BME280;67429;51.596;-3.264;2023-02-05T00:25:55;101962.35;;;7.72;56.02
78064;BME280;67429;51.596;-3.264;2023-02-05T00:28:21;101952.10;;;7.52;55.59
78064;BME280;67429;51.596;-3.264;2023-02-05T00:30:47;101945.28;;;7.51;55.47
78064;BME280;67429;51.596;-3.264;2023-02-05T00:33:12;101936.47;;;7.74;55.23
78064;BME280;67429;51.596;-3.264;2023-02-05T00:35:38;101922.96;;;7.81;54.17
78064;BME280;67429;51.596;-3.264;2023-02-05T00:38:04;101921.46;;;8.19;53.38
78064;BME280;67429;51.596;-3.264;2023-02-05T00:40:30;101928.80;;;8.07;53.67
78064;BME280;67429;51.596;-3.264;2023-02-05T00:42:55;101929.64;;;7.30;54.89
78064;BME280;67429;51.596;-3.264;2023-02-05T00:45:21;101935.54;;;6.04;59.01
78064;BME280;67429;51.596;-3.264;2023-02-05T00:47:47;101966.04;;;6.33;57.88
78064;BME280;67429;51.596;-3.264;2023-02-05T00:50:12;101972.02;;;5.83;58.84
78064;BME280;67429;51.596;-3.264;2023-02-05T00:52:38;101986.58;;;5.96;59.70
78064;BME280;67429;51.596;-3.264;2023-02-05T00:55:04;102008.21;;;5.41;60.60
78064;BME280;67429;51.596;-3.264;2023-02-05T00:57:29;102012.26;;;5.39;59.83
78064;BME280;67429;51.596;-3.264;2023-02-05T00:59:55;102014.71;;;5.16;61.46
78064;BME280;67429;51.596;-3.264;2023-02-05T01:02:21;102011.67;;;5.84;60.15
78064;BME280;67429;51.596;-3.264;2023-02-05T01:04:47;102003.66;;;5.52;60.33
78064;BME280;67429;51.596;-3.264;2023-02-05T01:07:12;101993.56;;;6.28;57.36
78064;BME280;67429;51.596;-3.264;2023-02-05T01:09:38;101993.51;;;5.47;59.24
78064;BME280;67429;51.596;-3.264;2023-02-05T01:12:04;101993.38;;;5.37;59.11
78064;BME280;67429;51.596;-3.264;2023-02-05T01:14:29;102016.91;;;5.33;59.70
78064;BME280;67429;51.596;-3.264;2023-02-05T01:16:55;102009.77;;;4.67;60.91
78064;BME280;67429;51.596;-3.264;2023-02-05T01:19:21;102003.72;;;5.40;59.49
78064;BME280;67429;51.596;-3.264;2023-02-05T01:21:47;102020.58;;;5.07;59.55
78064;BME280;67429;51.596;-3.264;2023-02-05T01:24:12;102025.83;;;4.86;59.49
78064;BME280;67429;51.596;-3.264;2023-02-05T01:26:38;102020.87;;;5.28;58.44
78064;BME280;67429;51.596;-3.264;2023-02-05T01:29:04;102020.99;;;5.10;57.71
78064;BME280;67429;51.596;-3.264;2023-02-05T01:31:30;102025.67;;;5.13;57.73
78064;BME280;67429;51.596;-3.264;2023-02-05T01:33:56;102007.74;;;4.37;60.01
78064;BME280;67429;51.596;-3.264;2023-02-05T01:36:21;101993.68;;;4.63;59.11
78064;BME280;67429;51.596;-3.264;2023-02-05T01:38:47;101997.55;;;6.05;55.83
78064;BME280;67429;51.596;-3.264;2023-02-05T01:41:13;102005.20;;;6.27;54.15
78064;BME280;67429;51.596;-3.264;2023-02-05T01:43:39;102028.84;;;4.65;57.12
78064;BME280;67429;51.596;-3.264;2023-02-05T01:46:15;102036.17;;;3.78;60.27
78064;BME280;67429;51.596;-3.264;2023-02-05T01:48:33;102030.77;;;4.09;60.60
78064;BME280;67429;51.596;-3.264;2023-02-05T01:51:00;102016.74;;;4.17;59.67
78064;BME280;67429;51.596;-3.264;2023-02-05T01:53:24;102027.82;;;3.59;61.38
78064;BME280;67429;51.596;-3.264;2023-02-05T01:55:50;102027.83;;;4.28;58.95
78064;BME280;67429;51.596;-3.264;2023-02-05T01:58:13;102018.06;;;4.89;57.48
78064;BME280;67429;51.596;-3.264;2023-02-05T02:00:39;102023.50;;;4.23;57.71
78064;BME280;67429;51.596;-3.264;2023-02-05T02:03:04;102034.34;;;4.63;55.89
78064;BME280;67429;51.596;-3.264;2023-02-05T02:05:30;102019.43;;;4.61;56.20
78064;BME280;67429;51.596;-3.264;2023-02-05T02:07:56;102017.93;;;5.00;54.16
78064;BME280;67429;51.596;-3.264;2023-02-05T02:10:22;102025.09;;;5.29;54.12
78064;BME280;67429;51.596;-3.264;2023-02-05T02:12:48;102017.85;;;4.78;55.30
78064;BME280;67429;51.596;-3.264;2023-02-05T02:15:16;102011.84;;;3.66;57.29
78064;BME280;67429;51.596;-3.264;2023-02-05T02:17:42;102015.25;;;4.00;57.73
78064;BME280;67429;51.596;-3.264;2023-02-05T02:20:07;102032.70;;;3.73;57.48
78064;BME280;67429;51.596;-3.264;2023-02-05T02:22:41;102028.78;;;4.10;56.43
78064;BME280;67429;51.596;-3.264;2023-02-05T02:27:34;102039.53;;;3.61;57.14
78064;BME280;67429;51.596;-3.264;2023-02-05T02:29:51;102028.61;;;3.27;58.76
78064;BME280;67429;51.596;-3.264;2023-02-05T02:32:19;102035.95;;;3.34;58.26
78064;BME280;67429;51.596;-3.264;2023-02-05T02:34:42;102038.31;;;3.15;58.28
78064;BME280;67429;51.596;-3.264;2023-02-05T02:37:07;102047.50;;;3.06;58.00
78064;BME280;67429;51.596;-3.264;2023-02-05T02:39:36;102054.44;;;3.22;58.15
78064;BME280;67429;51.596;-3.264;2023-02-05T02:42:02;102061.63;;;2.80;59.37
78064;BME280;67429;51.596;-3.264;2023-02-05T02:44:28;102061.70;;;3.32;57.85
78064;BME280;67429;51.596;-3.264;2023-02-05T02:46:51;102068.97;;;2.70;58.51
78064;BME280;67429;51.596;-3.264;2023-02-05T02:49:22;102076.46;;;2.36;60.51
78064;BME280;67429;51.596;-3.264;2023-02-05T02:51:41;102085.94;;;2.06;61.22
78064;BME280;67429;51.596;-3.264;2023-02-05T02:54:09;102101.71;;;2.63;60.41
78064;BME280;67429;51.596;-3.264;2023-02-05T02:56:32;102116.07;;;2.76;58.86
78064;BME280;67429;51.596;-3.264;2023-02-05T02:59:00;102125.12;;;2.11;59.61
78064;BME280;67429;51.596;-3.264;2023-02-05T03:01:24;102130.21;;;3.87;56.14
78064;BME280;67429;51.596;-3.264;2023-02-05T03:03:51;102136.18;;;3.75;55.38
78064;BME280;67429;51.596;-3.264;2023-02-05T03:06:16;102146.28;;;4.08;53.12
78064;BME280;67429;51.596;-3.264;2023-02-05T03:08:46;102158.66;;;4.45;52.49
78064;BME280;67429;51.596;-3.264;2023-02-05T03:11:11;102162.63;;;4.15;52.25
78064;BME280;67429;51.596;-3.264;2023-02-05T03:13:32;102156.68;;;3.93;53.68
78064;BME280;67429;51.596;-3.264;2023-02-05T03:15:58;102160.96;;;3.14;55.62
78064;BME280;67429;51.596;-3.264;2023-02-05T03:18:24;102166.68;;;1.80;60.08
78064;BME280;67429;51.596;-3.264;2023-02-05T03:20:52;102178.51;;;1.74;59.12
78064;BME280;67429;51.596;-3.264;2023-02-05T03:23:16;102181.48;;;2.94;56.47
78064;BME280;67429;51.596;-3.264;2023-02-05T03:25:41;102191.22;;;2.93;56.20
78064;BME280;67429;51.596;-3.264;2023-02-05T03:28:07;102191.70;;;2.81;56.59
78064;BME280;67429;51.596;-3.264;2023-02-05T03:30:39;102202.58;;;2.81;55.58
78064;BME280;67429;51.596;-3.264;2023-02-05T03:33:06;102186.89;;;2.64;55.76
78064;BME280;67429;51.596;-3.264;2023-02-05T03:35:30;102181.74;;;3.06;54.19
78064;BME280;67429;51.596;-3.264;2023-02-05T03:38:00;102174.47;;;2.91;54.69
78064;BME280;67429;51.596;-3.264;2023-02-05T03:40:19;102192.40;;;2.54;55.58
78064;BME280;67429;51.596;-3.264;2023-02-05T03:42:49;102198.20;;;2.63;54.76
78064;BME280;67429;51.596;-3.264;2023-02-05T03:45:18;102198.37;;;2.16;57.19
78064;BME280;67429;51.596;-3.264;2023-02-05T03:47:37;102194.61;;;2.31;55.87
78064;BME280;67429;51.596;-3.264;2023-02-05T03:50:04;102205.27;;;1.84;58.09
78064;BME280;67429;51.596;-3.264;2023-02-05T03:52:28;102204.05;;;2.50;55.98
78064;BME280;67429;51.596;-3.264;2023-02-05T03:54:56;102210.93;;;1.49;56.87
78064;BME280;67429;51.596;-3.264;2023-02-05T03:57:18;102213.11;;;1.64;58.06
78064;BME280;67429;51.596;-3.264;2023-02-05T03:59:41;102216.26;;;1.78;56.22
78064;BME280;67429;51.596;-3.264;2023-02-05T04:02:05;102223.96;;;1.94;55.90
78064;BME280;67429;51.596;-3.264;2023-02-05T04:04:31;102224.34;;;2.34;55.56
78064;BME280;67429;51.596;-3.264;2023-02-05T04:06:57;102225.33;;;2.17;55.12
78064;BME280;67429;51.596;-3.264;2023-02-05T04:09:22;102228.32;;;2.06;54.66
78064;BME280;67429;51.596;-3.264;2023-02-05T04:11:47;102226.65;;;2.64;54.05
78064;BME280;67429;51.596;-3.264;2023-02-05T04:14:12;102230.36;;;2.30;54.06
78064;BME280;67429;51.596;-3.264;2023-02-05T04:16:38;102233.42;;;1.55;56.53
78064;BME280;67429;51.596;-3.264;2023-02-05T04:19:03;102231.30;;;2.51;54.74
78064;BME280;67429;51.596;-3.264;2023-02-05T04:21:28;102238.54;;;2.56;54.14
78064;BME280;67429;51.596;-3.264;2023-02-05T04:23:54;102248.93;;;2.52;53.05
78064;BME280;67429;51.596;-3.264;2023-02-05T04:26:20;102265.06;;;2.36;53.88
78064;BME280;67429;51.596;-3.264;2023-02-05T04:28:46;102260.28;;;2.32;54.13
78064;BME280;67429;51.596;-3.264;2023-02-05T04:31:12;102252.10;;;2.31;54.56
78064;BME280;67429;51.596;-3.264;2023-02-05T04:33:36;102253.24;;;1.10;56.79
78064;BME280;67429;51.596;-3.264;2023-02-05T04:36:03;102252.57;;;1.46;56.30
78064;BME280;67429;51.596;-3.264;2023-02-05T04:38:27;102257.56;;;2.56;54.29
78064;BME280;67429;51.596;-3.264;2023-02-05T04:40:53;102252.71;;;1.75;55.03
78064;BME280;67429;51.596;-3.264;2023-02-05T04:43:18;102254.33;;;2.02;55.15
78064;BME280;67429;51.596;-3.264;2023-02-05T04:45:44;102249.67;;;0.49;59.74
78064;BME280;67429;51.596;-3.264;2023-02-05T04:48:10;102244.68;;;1.17;57.66
78064;BME280;67429;51.596;-3.264;2023-02-05T04:50:37;102247.13;;;2.05;56.06
78064;BME280;67429;51.596;-3.264;2023-02-05T04:53:01;102238.50;;;1.06;57.54
78064;BME280;67429;51.596;-3.264;2023-02-05T04:55:26;102246.37;;;2.18;54.58
78064;BME280;67429;51.596;-3.264;2023-02-05T04:57:53;102251.19;;;2.03;54.19
78064;BME280;67429;51.596;-3.264;2023-02-05T05:00:18;102256.63;;;2.04;55.20
78064;BME280;67429;51.596;-3.264;2023-02-05T05:02:42;102262.51;;;2.36;54.46
78064;BME280;67429;51.596;-3.264;2023-02-05T05:05:08;102261.80;;;1.75;55.83
78064;BME280;67429;51.596;-3.264;2023-02-05T05:07:34;102267.05;;;2.01;54.66
78064;BME280;67429;51.596;-3.264;2023-02-05T05:09:59;102259.89;;;1.27;56.69
78064;BME280;67429;51.596;-3.264;2023-02-05T05:12:24;102261.97;;;1.25;56.33
78064;BME280;67429;51.596;-3.264;2023-02-05T05:14:50;102272.36;;;2.32;54.39
78064;BME280;67429;51.596;-3.264;2023-02-05T05:17:15;102276.13;;;1.80;55.41
78064;BME280;67429;51.596;-3.264;2023-02-05T05:19:41;102283.88;;;0.91;56.99
78064;BME280;67429;51.596;-3.264;2023-02-05T05:22:06;102296.66;;;1.36;55.78
78064;BME280;67429;51.596;-3.264;2023-02-05T05:24:32;102298.10;;;2.23;53.85
78064;BME280;67429;51.596;-3.264;2023-02-05T05:26:58;102295.59;;;1.85;54.10
78064;BME280;67429;51.596;-3.264;2023-02-05T05:29:23;102293.87;;;1.78;53.67
78064;BME280;67429;51.596;-3.264;2023-02-05T05:31:51;102310.50;;;1.30;55.41
78064;BME280;67429;51.596;-3.264;2023-02-05T05:34:15;102322.24;;;0.75;56.47
78064;BME280;67429;51.596;-3.264;2023-02-05T05:36:40;102331.69;;;1.46;55.48
78064;BME280;67429;51.596;-3.264;2023-02-05T05:39:06;102338.01;;;1.04;56.96
78064;BME280;67429;51.596;-3.264;2023-02-05T05:41:31;102343.21;;;0.29;57.80
78064;BME280;67429;51.596;-3.264;2023-02-05T05:43:56;102337.05;;;1.32;55.10
78064;BME280;67429;51.596;-3.264;2023-02-05T05:46:23;102328.53;;;0.60;56.58
78064;BME280;67429;51.596;-3.264;2023-02-05T05:48:48;102333.53;;;0.20;57.28
78064;BME280;67429;51.596;-3.264;2023-02-05T05:51:13;102338.38;;;0.43;57.10
78064;BME280;67429;51.596;-3.264;2023-02-05T05:53:38;102343.83;;;0.70;56.01
78064;BME280;67429;51.596;-3.264;2023-02-05T05:56:04;102329.93;;;0.72;55.46
78064;BME280;67429;51.596;-3.264;2023-02-05T05:58:29;102330.27;;;0.75;55.93
78064;BME280;67429;51.596;-3.264;2023-02-05T06:00:54;102325.82;;;0.01;56.62
78064;BME280;67429;51.596;-3.264;2023-02-05T06:03:20;102327.53;;;0.47;55.90
78064;BME280;67429;51.596;-3.264;2023-02-05T06:05:45;102319.96;;;-0.16;57.78
78064;BME280;67429;51.596;-3.264;2023-02-05T06:08:11;102320.15;;;0.30;57.51
78064;BME280;67429;51.596;-3.264;2023-02-05T06:10:36;102313.90;;;-0.19;58.38
78064;BME280;67429;51.596;-3.264;2023-02-05T06:13:01;102313.34;;;-0.05;59.34
78064;BME280;67429;51.596;-3.264;2023-02-05T06:15:27;102312.43;;;0.57;56.38
78064;BME280;67429;51.596;-3.264;2023-02-05T06:17:51;102291.27;;;-0.57;58.73
78064;BME280;67429;51.596;-3.264;2023-02-05T06:20:18;102290.94;;;-0.15;59.25
78064;BME280;67429;51.596;-3.264;2023-02-05T06:22:43;102285.46;;;-0.31;59.50
78064;BME280;67429;51.596;-3.264;2023-02-05T06:25:08;102293.28;;;-0.08;59.74
78064;BME280;67429;51.596;-3.264;2023-02-05T06:27:34;102305.36;;;-0.43;59.86
78064;BME280;67429;51.596;-3.264;2023-02-05T06:29:59;102319.68;;;0.03;59.68
78064;BME280;67429;51.596;-3.264;2023-02-05T06:32:24;102336.23;;;0.35;58.27
78064;BME280;67429;51.596;-3.264;2023-02-05T06:34:50;102343.43;;;0.67;57.34
78064;BME280;67429;51.596;-3.264;2023-02-05T06:37:15;102345.66;;;0.21;57.58
78064;BME280;67429;51.596;-3.264;2023-02-05T06:39:41;102349.33;;;1.76;54.22
78064;BME280;67429;51.596;-3.264;2023-02-05T06:42:06;102356.38;;;1.90;53.67
78064;BME280;67429;51.596;-3.264;2023-02-05T06:44:32;102356.48;;;2.31;51.52
78064;BME280;67429;51.596;-3.264;2023-02-05T06:46:57;102346.19;;;2.03;52.40
78064;BME280;67429;51.596;-3.264;2023-02-05T06:49:23;102352.67;;;2.16;52.59
78064;BME280;67429;51.596;-3.264;2023-02-05T06:51:48;102356.87;;;1.37;54.64
78064;BME280;67429;51.596;-3.264;2023-02-05T06:54:13;102357.88;;;1.39;54.25
78064;BME280;67429;51.596;-3.264;2023-02-05T06:56:39;102356.17;;;1.90;52.37
78064;BME280;67429;51.596;-3.264;2023-02-05T06:59:04;102359.27;;;1.85;53.10
78064;BME280;67429;51.596;-3.264;2023-02-05T07:01:29;102372.05;;;2.35;51.65
78064;BME280;67429;51.596;-3.264;2023-02-05T07:03:55;102376.19;;;1.82;51.86
78064;BME280;67429;51.596;-3.264;2023-02-05T07:06:21;102386.77;;;2.44;51.05
78064;BME280;67429;51.596;-3.264;2023-02-05T07:08:47;102390.21;;;1.86;51.86
78064;BME280;67429;51.596;-3.264;2023-02-05T07:11:12;102391.08;;;3.24;49.92
78064;BME280;67429;51.596;-3.264;2023-02-05T07:13:37;102395.02;;;2.52;51.93
78064;BME280;67429;51.596;-3.264;2023-02-05T07:16:03;102404.02;;;1.89;51.76
78064;BME280;67429;51.596;-3.264;2023-02-05T07:18:28;102406.19;;;1.22;53.99
78064;BME280;67429;51.596;-3.264;2023-02-05T07:20:53;102400.05;;;1.14;54.24
78064;BME280;67429;51.596;-3.264;2023-02-05T07:23:19;102401.22;;;0.89;55.26
78064;BME280;67429;51.596;-3.264;2023-02-05T07:25:44;102403.90;;;0.02;56.80
78064;BME280;67429;51.596;-3.264;2023-02-05T07:28:10;102404.06;;;0.46;56.53
78064;BME280;67429;51.596;-3.264;2023-02-05T07:30:35;102404.25;;;1.33;55.08
78064;BME280;67429;51.596;-3.264;2023-02-05T07:33:01;102396.88;;;1.08;55.51
78064;BME280;67429;51.596;-3.264;2023-02-05T07:35:26;102396.13;;;0.95;56.85
78064;BME280;67429;51.596;-3.264;2023-02-05T07:37:52;102398.23;;;-0.14;60.14
78064;BME280;67429;51.596;-3.264;2023-02-05T07:40:17;102401.54;;;0.08;59.43
78064;BME280;67429;51.596;-3.264;2023-02-05T07:42:42;102402.46;;;0.04;59.58
78064;BME280;67429;51.596;-3.264;2023-02-05T07:45:08;102412.73;;;-0.69;61.91
78064;BME280;67429;51.596;-3.264;2023-02-05T07:47:34;102411.02;;;-0.58;61.41
78064;BME280;67429;51.596;-3.264;2023-02-05T07:49:58;102407.28;;;0.28;60.01
78064;BME280;67429;51.596;-3.264;2023-02-05T07:52:24;102409.70;;;-0.14;60.59
78064;BME280;67429;51.596;-3.264;2023-02-05T07:54:49;102414.12;;;-0.43;61.16
78064;BME280;67429;51.596;-3.264;2023-02-05T07:57:15;102416.97;;;-0.11;59.20
78064;BME280;67429;51.596;-3.264;2023-02-05T07:59:40;102422.28;;;0.83;58.83
78064;BME280;67429;51.596;-3.264;2023-02-05T08:02:06;102421.68;;;0.56;58.41
78064;BME280;67429;51.596;-3.264;2023-02-05T08:04:31;102428.55;;;1.38;55.73
78064;BME280;67429;51.596;-3.264;2023-02-05T08:06:57;102422.88;;;1.86;54.03
78064;BME280;67429;51.596;-3.264;2023-02-05T08:09:22;102422.81;;;2.70;52.11
78064;BME280;67429;51.596;-3.264;2023-02-05T08:11:48;102415.34;;;2.22;52.50
78064;BME280;67429;51.596;-3.264;2023-02-05T08:14:13;102414.75;;;1.19;55.56
78064;BME280;67429;51.596;-3.264;2023-02-05T08:16:39;102417.33;;;1.54;55.10
78064;BME280;67429;51.596;-3.264;2023-02-05T08:19:05;102420.71;;;1.28;54.44
78064;BME280;67429;51.596;-3.264;2023-02-05T08:21:30;102422.48;;;2.05;53.15
78064;BME280;67429;51.596;-3.264;2023-02-05T08:23:55;102427.15;;;2.76;52.03
78064;BME280;67429;51.596;-3.264;2023-02-05T08:26:21;102431.97;;;3.64;50.64
78064;BME280;67429;51.596;-3.264;2023-02-05T08:28:46;102430.10;;;3.57;49.69
78064;BME280;67429;51.596;-3.264;2023-02-05T08:31:13;102427.96;;;3.53;50.53
78064;BME280;67429;51.596;-3.264;2023-02-05T08:33:37;102432.12;;;2.23;52.92
78064;BME280;67429;51.596;-3.264;2023-02-05T08:36:03;102425.71;;;2.06;52.80
78064;BME280;67429;51.596;-3.264;2023-02-05T08:38:28;102434.84;;;2.49;52.42
78064;BME280;67429;51.596;-3.264;2023-02-05T08:40:54;102438.29;;;3.04;50.02
78064;BME280;67429;51.596;-3.264;2023-02-05T08:43:20;102434.09;;;1.90;53.02
78064;BME280;67429;51.596;-3.264;2023-02-05T08:45:46;102433.99;;;2.99;49.89
78064;BME280;67429;51.596;-3.264;2023-02-05T08:48:11;102438.02;;;3.90;48.84
78064;BME280;67429;51.596;-3.264;2023-02-05T08:50:36;102437.68;;;4.37;47.86
78064;BME280;67429;51.596;-3.264;2023-02-05T08:53:02;102437.59;;;3.97;48.48
78064;BME280;67429;51.596;-3.264;2023-02-05T08:55:28;102445.15;;;2.97;48.65
78064;BME280;67429;51.596;-3.264;2023-02-05T08:57:53;102453.70;;;3.35;50.20
78064;BME280;67429;51.596;-3.264;2023-02-05T09:00:19;102456.47;;;3.29;49.57
78064;BME280;67429;51.596;-3.264;2023-02-05T09:02:45;102456.49;;;2.71;51.40
78064;BME280;67429;51.596;-3.264;2023-02-05T09:05:11;102455.91;;;2.15;54.05
78064;BME280;67429;51.596;-3.264;2023-02-05T09:07:38;102454.92;;;2.24;53.54
78064;BME280;67429;51.596;-3.264;2023-02-05T09:10:03;102452.61;;;2.62;53.26
78064;BME280;67429;51.596;-3.264;2023-02-05T09:12:28;102456.22;;;2.01;55.35
78064;BME280;67429;51.596;-3.264;2023-02-05T09:14:54;102454.84;;;1.39;57.36
78064;BME280;67429;51.596;-3.264;2023-02-05T09:17:19;102462.47;;;2.31;55.58
78064;BME280;67429;51.596;-3.264;2023-02-05T09:19:45;102460.44;;;2.52;54.47
78064;BME280;67429;51.596;-3.264;2023-02-05T09:22:11;102459.04;;;2.63;53.20
78064;BME280;67429;51.596;-3.264;2023-02-05T09:24:37;102457.72;;;2.23;53.72
78064;BME280;67429;51.596;-3.264;2023-02-05T09:27:02;102461.24;;;2.57;53.65
78064;BME280;67429;51.596;-3.264;2023-02-05T09:29:28;102468.23;;;2.27;53.42
78064;BME280;67429;51.596;-3.264;2023-02-05T09:31:54;102462.21;;;2.20;53.66
78064;BME280;67429;51.596;-3.264;2023-02-05T09:34:20;102468.55;;;3.17;52.55
78064;BME280;67429;51.596;-3.264;2023-02-05T09:36:45;102476.31;;;3.24;50.71
78064;BME280;67429;51.596;-3.264;2023-02-05T09:39:11;102478.59;;;3.91;49.48
78064;BME280;67429;51.596;-3.264;2023-02-05T09:41:43;102480.26;;;4.46;49.12
78064;BME280;67429;51.596;-3.264;2023-02-05T09:44:09;102483.34;;;3.66;49.76
78064;BME280;67429;51.596;-3.264;2023-02-05T09:46:37;102482.73;;;4.54;48.86
78064;BME280;67429;51.596;-3.264;2023-02-05T09:48:57;102474.89;;;4.77;46.54
78064;BME280;67429;51.596;-3.264;2023-02-05T09:51:32;102471.00;;;4.84;47.77
78064;BME280;67429;51.596;-3.264;2023-02-05T09:53:49;102478.92;;;3.82;49.45
78064;BME280;67429;51.596;-3.264;2023-02-05T09:56:12;102473.68;;;5.43;46.76
78064;BME280;67429;51.596;-3.264;2023-02-05T09:58:40;102473.20;;;4.77;46.76
78064;BME280;67429;51.596;-3.264;2023-02-05T10:01:05;102467.69;;;4.88;45.98
78064;BME280;67429;51.596;-3.264;2023-02-05T10:03:33;102478.79;;;4.10;47.96
78064;BME280;67429;51.596;-3.264;2023-02-05T10:06:06;102478.91;;;4.56;47.54
78064;BME280;67429;51.596;-3.264;2023-02-05T10:08:25;102476.68;;;3.00;49.38
78064;BME280;67429;51.596;-3.264;2023-02-05T10:10:47;102469.75;;;3.42;51.71
78064;BME280;67429;51.596;-3.264;2023-02-05T10:13:25;102482.50;;;3.07;51.17
78064;BME280;67429;51.596;-3.264;2023-02-05T10:15:48;102491.48;;;2.81;50.33
78064;BME280;67429;51.596;-3.264;2023-02-05T10:18:10;102485.56;;;4.12;48.32
78064;BME280;67429;51.596;-3.264;2023-02-05T10:20:37;102476.71;;;4.81;47.86
78064;BME280;67429;51.596;-3.264;2023-02-05T10:23:04;102481.23;;;5.40;44.73
78064;BME280;67429;51.596;-3.264;2023-02-05T10:25:33;102480.73;;;6.48;43.33
78064;BME280;67429;51.596;-3.264;2023-02-05T10:27:50;102480.05;;;6.12;42.64
78064;BME280;67429;51.596;-3.264;2023-02-05T10:30:17;102475.54;;;5.06;42.65
78064;BME280;67429;51.596;-3.264;2023-02-05T10:32:50;102471.07;;;4.65;45.00
78064;BME280;67429;51.596;-3.264;2023-02-05T10:35:11;102477.13;;;4.95;44.58
78064;BME280;67429;51.596;-3.264;2023-02-05T10:37:36;102473.34;;;5.03;45.77
78064;BME280;67429;51.596;-3.264;2023-02-05T10:39:55;102468.97;;;5.54;43.52
78064;BME280;67429;51.596;-3.264;2023-02-05T10:42:25;102462.47;;;5.47;42.98
78064;BME280;67429;51.596;-3.264;2023-02-05T10:44:48;102461.59;;;6.14;40.79
78064;BME280;67429;51.596;-3.264;2023-02-05T10:47:13;102466.87;;;5.86;41.55
78064;BME280;67429;51.596;-3.264;2023-02-05T10:49:43;102469.65;;;5.98;41.61
78064;BME280;67429;51.596;-3.264;2023-02-05T10:52:02;102471.56;;;6.57;39.44
78064;BME280;67429;51.596;-3.264;2023-02-05T10:54:29;102475.41;;;7.26;37.17
78064;BME280;67429;51.596;-3.264;2023-02-05T10:56:53;102476.81;;;7.55;37.88
78064;BME280;67429;51.596;-3.264;2023-02-05T10:59:21;102467.52;;;6.35;40.48
78064;BME280;67429;51.596;-3.264;2023-02-05T11:01:45;102465.18;;;7.39;37.71
78064;BME280;67429;51.596;-3.264;2023-02-05T11:04:13;102474.20;;;6.80;37.23
78064;BME280;67429;51.596;-3.264;2023-02-05T11:06:38;102476.92;;;6.44;38.05
78064;BME280;67429;51.596;-3.264;2023-02-05T11:09:02;102479.71;;;7.70;38.02
78064;BME280;67429;51.596;-3.264;2023-02-05T11:11:30;102475.05;;;7.03;37.36
78064;BME280;67429;51.596;-3.264;2023-02-05T11:13:55;102476.09;;;6.10;40.00
78064;BME280;67429;51.596;-3.264;2023-02-05T11:16:19;102475.20;;;6.23;41.69
78064;BME280;67429;51.596;-3.264;2023-02-05T11:18:53;102470.09;;;6.99;39.50
78064;BME280;67429;51.596;-3.264;2023-02-05T11:21:10;102463.75;;;7.04;40.79
78064;BME280;67429;51.596;-3.264;2023-02-05T11:23:36;102464.78;;;6.78;41.26
78064;BME280;67429;51.596;-3.264;2023-02-05T11:26:07;102464.99;;;7.03;40.18
78064;BME280;67429;51.596;-3.264;2023-02-05T11:28:28;102469.75;;;7.00;40.91
78064;BME280;67429;51.596;-3.264;2023-02-05T11:30:52;102473.58;;;6.45;40.15
78064;BME280;67429;51.596;-3.264;2023-02-05T11:33:25;102474.75;;;6.84;41.79
78064;BME280;67429;51.596;-3.264;2023-02-05T11:35:49;102472.16;;;6.36;42.13
78064;BME280;67429;51.596;-3.264;2023-02-05T11:38:14;102471.45;;;6.52;41.66
78064;BME280;67429;51.596;-3.264;2023-02-05T11:40:35;102463.69;;;6.36;41.73
78064;BME280;67429;51.596;-3.264;2023-02-05T11:43:05;102451.25;;;7.08;41.74
78064;BME280;67429;51.596;-3.264;2023-02-05T11:45:26;102446.44;;;7.65;39.90
78064;BME280;67429;51.596;-3.264;2023-02-05T11:47:52;102442.17;;;7.60;39.61
78064;BME280;67429;51.596;-3.264;2023-02-05T11:50:23;102437.71;;;7.64;38.87
78064;BME280;67429;51.596;-3.264;2023-02-05T11:52:43;102442.15;;;7.19;38.99
78064;BME280;67429;51.596;-3.264;2023-02-05T11:57:36;102447.68;;;6.81;41.16
78064;BME280;67429;51.596;-3.264;2023-02-05T12:00:13;102445.62;;;7.34;39.72
78064;BME280;67429;51.596;-3.264;2023-02-05T12:02:31;102445.52;;;7.36;38.67
78064;BME280;67429;51.596;-3.264;2023-02-05T12:04:55;102450.65;;;7.04;40.17
78064;BME280;67429;51.596;-3.264;2023-02-05T12:07:19;102445.88;;;6.67;41.83
78064;BME280;67429;51.596;-3.264;2023-02-05T12:09:43;102439.75;;;7.57;39.21
78064;BME280;67429;51.596;-3.264;2023-02-05T12:12:15;102443.46;;;7.66;39.71
78064;BME280;67429;51.596;-3.264;2023-02-05T12:14:40;102436.09;;;6.81;39.03
78064;BME280;67429;51.596;-3.264;2023-02-05T12:17:09;102436.12;;;6.87;41.13
78064;BME280;67429;51.596;-3.264;2023-02-05T12:19:30;102438.72;;;7.08;39.99
78064;BME280;67429;51.596;-3.264;2023-02-05T12:21:56;102447.16;;;6.89;40.93
78064;BME280;67429;51.596;-3.264;2023-02-05T12:24:41;102451.75;;;7.28;41.86
78064;BME280;67429;51.596;-3.264;2023-02-05T12:26:43;102457.90;;;7.02;39.88
78064;BME280;67429;51.596;-3.264;2023-02-05T12:29:16;102449.09;;;6.84;40.77
78064;BME280;67429;51.596;-3.264;2023-02-05T12:31:45;102445.44;;;6.70;41.07
78064;BME280;67429;51.596;-3.264;2023-02-05T12:34:08;102450.79;;;7.28;41.16
78064;BME280;67429;51.596;-3.264;2023-02-05T12:36:36;102452.65;;;7.31;39.40
78064;BME280;67429;51.596;-3.264;2023-02-05T12:38:59;102456.17;;;7.36;41.55
78064;BME280;67429;51.596;-3.264;2023-02-05T12:41:24;102456.91;;;6.85;39.72
78064;BME280;67429;51.596;-3.264;2023-02-05T12:43:44;102452.27;;;6.75;39.79
78064;BME280;67429;51.596;-3.264;2023-02-05T12:46:19;102455.01;;;7.51;40.91